createdAt,value
2022-11-22T00:00:48.115Z,1.24
2022-11-22T00:03:18.782Z,1.24
2022-11-22T00:05:46.605Z,1.30
2022-11-22T00:08:14.245Z,1.35
2022-11-22T00:10:41.928Z,1.28
2022-11-22T00:13:09.862Z,1.26
2022-11-22T00:15:37.527Z,1.23
2022-11-22T00:18:05.332Z,1.16
2022-11-22T00:20:33.775Z,1.15
2022-11-22T00:23:01.436Z,1.14
2022-11-22T00:25:29.083Z,1.15
2022-11-22T00:27:56.746Z,1.15
2022-11-22T00:30:24.393Z,1.16
2022-11-22T00:32:52.530Z,1.15
2022-11-22T00:35:20.174Z,1.17
2022-11-22T00:37:48.173Z,1.19
2022-11-22T00:40:16.569Z,1.17
2022-11-22T00:42:45.100Z,1.16
2022-11-22T00:45:12.946Z,1.12
2022-11-22T00:47:40.700Z,1.11
2022-11-22T00:50:10.000Z,1.08
2022-11-22T00:52:37.755Z,1.06
2022-11-22T00:55:05.940Z,1.09
2022-11-22T00:57:33.741Z,1.07
2022-11-22T01:00:01.497Z,1.08
2022-11-22T01:02:30.306Z,1.08
2022-11-22T01:04:57.940Z,1.10
2022-11-22T01:07:25.879Z,1.10
2022-11-22T01:09:53.583Z,1.11
2022-11-22T01:12:21.215Z,1.13
2022-11-22T01:14:49.060Z,1.18
2022-11-22T01:17:17.422Z,1.17
2022-11-22T01:19:45.747Z,1.20
2022-11-22T01:22:13.419Z,1.18
2022-11-22T01:24:41.128Z,1.17
2022-11-22T01:27:08.846Z,1.15
2022-11-22T01:29:36.628Z,1.09
2022-11-22T01:32:04.523Z,1.07
2022-11-22T01:34:32.444Z,1.05
2022-11-22T01:37:00.196Z,1.04
2022-11-22T01:39:28.458Z,1.04
2022-11-22T01:41:56.585Z,1.08
2022-11-22T01:44:28.425Z,1.12
2022-11-22T01:47:25.161Z,1.14
2022-11-22T01:50:01.998Z,1.17
2022-11-22T01:52:32.810Z,1.20
2022-11-22T01:55:06.104Z,1.18
2022-11-22T01:57:38.432Z,1.17
2022-11-22T02:00:12.997Z,1.18
2022-11-22T02:02:50.601Z,1.16
2022-11-22T02:05:21.624Z,1.20
2022-11-22T02:07:59.048Z,1.24
2022-11-22T02:10:29.968Z,1.27
2022-11-22T02:13:00.182Z,1.31
2022-11-22T02:15:27.930Z,1.31
2022-11-22T02:17:58.530Z,1.33
2022-11-22T02:20:26.249Z,1.33
2022-11-22T02:23:06.911Z,1.33
2022-11-22T02:25:37.400Z,1.33
2022-11-22T02:28:05.395Z,1.35
2022-11-22T02:30:33.067Z,1.36
2022-11-22T02:33:02.935Z,1.36
2022-11-22T02:35:31.141Z,1.38
2022-11-22T02:38:09.471Z,1.41
2022-11-22T02:40:51.253Z,1.42
2022-11-22T02:43:24.876Z,1.44
2022-11-22T02:45:52.571Z,1.43
2022-11-22T02:48:20.947Z,1.39
2022-11-22T02:50:49.067Z,1.37
2022-11-22T02:53:16.694Z,1.33
2022-11-22T02:55:44.393Z,1.37
2022-11-22T02:58:12.217Z,1.41
2022-11-22T03:00:40.431Z,1.48
2022-11-22T03:03:08.127Z,1.53
2022-11-22T03:05:35.772Z,1.56
2022-11-22T03:08:03.442Z,1.60
2022-11-22T03:10:31.214Z,1.57
2022-11-22T03:12:59.616Z,1.56
2022-11-22T03:15:27.443Z,1.49
2022-11-22T03:18:00.132Z,1.45
2022-11-22T03:20:28.601Z,1.46
2022-11-22T03:22:56.352Z,1.44
2022-11-22T03:25:23.989Z,1.48
2022-11-22T03:27:51.632Z,1.51
2022-11-22T03:30:19.423Z,1.51
2022-11-22T03:32:47.326Z,1.51
2022-11-22T03:35:14.998Z,1.50
2022-11-22T03:37:42.652Z,1.43
2022-11-22T03:40:10.685Z,1.42
2022-11-22T03:42:38.351Z,1.36
2022-11-22T03:45:06.795Z,1.34
2022-11-22T03:47:34.444Z,1.33
2022-11-22T03:50:02.109Z,1.37
2022-11-22T03:52:29.853Z,1.41
2022-11-22T03:54:57.572Z,1.43
2022-11-22T03:57:25.211Z,1.41
2022-11-22T03:59:52.938Z,1.34
2022-11-22T04:02:20.604Z,1.28
2022-11-22T04:04:48.312Z,1.27
2022-11-22T04:07:16.157Z,1.25
2022-11-22T04:09:43.808Z,1.26
2022-11-22T04:12:11.438Z,1.26
2022-11-22T04:14:57.919Z,1.27
2022-11-22T04:17:40.813Z,1.27
2022-11-22T04:20:32.933Z,1.29
2022-11-22T04:23:06.561Z,1.27
2022-11-22T04:25:36.431Z,1.19
2022-11-22T04:28:05.174Z,1.16
2022-11-22T04:30:52.758Z,1.14
2022-11-22T04:33:21.268Z,1.13
2022-11-22T04:35:50.006Z,1.11
2022-11-22T04:38:18.757Z,1.08
2022-11-22T04:40:47.080Z,1.09
2022-11-22T04:43:45.502Z,1.09
2022-11-22T04:46:14.756Z,1.10
2022-11-22T04:48:43.045Z,1.08
2022-11-22T04:51:33.355Z,1.08
2022-11-22T04:54:01.014Z,1.11
2022-11-22T04:56:28.724Z,1.14
2022-11-22T04:58:56.491Z,1.19
2022-11-22T05:01:24.207Z,1.16
2022-11-22T05:03:51.979Z,1.16
2022-11-22T05:06:19.686Z,1.16
2022-11-22T05:08:47.875Z,1.18
2022-11-22T05:11:15.618Z,1.17
2022-11-22T05:13:43.648Z,1.21
2022-11-22T05:16:13.665Z,1.23
2022-11-22T05:18:42.159Z,1.23
2022-11-22T05:21:14.561Z,1.21
2022-11-22T05:23:57.120Z,1.23
2022-11-22T05:26:28.710Z,1.24
2022-11-22T05:28:58.162Z,1.21
2022-11-22T05:31:27.555Z,1.24
2022-11-22T05:33:57.120Z,1.23
2022-11-22T05:36:25.230Z,1.20
2022-11-22T05:38:53.892Z,1.17
2022-11-22T05:41:21.716Z,1.16
2022-11-22T05:43:49.523Z,1.16
2022-11-22T05:46:25.089Z,1.18
2022-11-22T05:48:55.111Z,1.20
2022-11-22T05:51:29.249Z,1.24
2022-11-22T05:54:02.323Z,1.25
2022-11-22T05:56:30.095Z,1.28
2022-11-22T05:58:57.783Z,1.33
2022-11-22T06:01:25.718Z,1.37
2022-11-22T06:03:54.184Z,1.38
2022-11-22T06:06:23.420Z,1.43
2022-11-22T06:08:51.628Z,1.45
2022-11-22T06:11:22.212Z,1.45
2022-11-22T06:13:55.256Z,1.44
2022-11-22T06:16:23.471Z,1.42
2022-11-22T06:18:51.364Z,1.36
2022-11-22T06:21:23.651Z,1.35
2022-11-22T06:23:55.497Z,1.34
2022-11-22T06:26:24.241Z,1.35
2022-11-22T06:28:52.515Z,1.35
2022-11-22T06:31:22.833Z,1.36
2022-11-22T06:33:52.641Z,1.37
2022-11-22T06:36:21.634Z,1.41
2022-11-22T06:38:49.631Z,1.43
2022-11-22T06:41:20.342Z,1.45
2022-11-22T06:43:50.388Z,1.41
2022-11-22T06:46:20.155Z,1.38
2022-11-22T06:48:48.795Z,1.40
2022-11-22T06:51:18.917Z,1.45
2022-11-22T06:53:49.024Z,1.44
2022-11-22T06:56:23.246Z,1.43
2022-11-22T06:58:52.066Z,1.39
2022-11-22T07:01:22.618Z,1.35
2022-11-22T07:03:51.350Z,1.32
2022-11-22T07:06:19.656Z,1.33
2022-11-22T07:08:47.609Z,1.31
2022-11-22T07:11:18.351Z,1.29
2022-11-22T07:13:47.465Z,1.30
2022-11-22T07:16:17.626Z,1.36
2022-11-22T07:18:45.482Z,1.40
2022-11-22T07:21:16.525Z,1.38
2022-11-22T07:23:46.074Z,1.42
2022-11-22T07:26:15.759Z,1.47
2022-11-22T07:28:43.837Z,1.48
2022-11-22T07:31:13.751Z,1.49
2022-11-22T07:33:42.564Z,1.50
2022-11-22T07:36:13.229Z,1.55
2022-11-22T07:38:41.479Z,1.58
2022-11-22T07:41:09.972Z,1.54
2022-11-22T07:43:37.875Z,1.62
2022-11-22T07:46:08.265Z,1.60
2022-11-22T07:48:36.005Z,1.62
2022-11-22T07:51:07.664Z,1.62
2022-11-22T07:53:35.539Z,1.65
2022-11-22T07:56:04.664Z,1.72
2022-11-22T07:58:33.904Z,1.82
2022-11-22T08:01:07.214Z,1.84
2022-11-22T08:03:36.021Z,1.84
2022-11-22T08:06:06.377Z,1.80
2022-11-22T08:08:35.204Z,1.84
2022-11-22T08:11:03.870Z,1.80
2022-11-22T08:13:32.588Z,1.83
2022-11-22T08:16:08.693Z,1.86
2022-11-22T08:18:37.771Z,1.91
2022-11-22T08:21:11.778Z,1.98
2022-11-22T08:23:40.680Z,2.01
2022-11-22T08:26:10.143Z,2.08
2022-11-22T08:28:38.335Z,2.10
2022-11-22T08:31:09.140Z,2.09
2022-11-22T08:33:36.939Z,2.11
2022-11-22T08:36:05.531Z,2.20
2022-11-22T08:38:33.266Z,2.28
2022-11-22T08:41:00.967Z,2.31
2022-11-22T08:43:28.661Z,2.40
2022-11-22T08:45:58.387Z,2.47
2022-11-22T08:48:26.523Z,2.53
2022-11-22T08:50:57.011Z,2.62
2022-11-22T08:53:25.608Z,2.76
2022-11-22T08:55:54.730Z,2.80
2022-11-22T08:58:22.881Z,2.79
2022-11-22T09:00:51.881Z,2.78
2022-11-22T09:03:19.604Z,2.86
2022-11-22T09:08:38.594Z,3.00
2022-11-22T09:11:12.035Z,3.06
2022-11-22T09:13:39.932Z,3.12
2022-11-22T09:16:19.246Z,3.17
2022-11-22T09:18:47.792Z,3.22
2022-11-22T09:21:21.041Z,3.20
2022-11-22T09:23:50.244Z,3.24
2022-11-22T09:26:20.416Z,3.21
2022-11-22T09:28:48.741Z,3.28
2022-11-22T09:31:19.521Z,3.31
2022-11-22T09:33:49.400Z,3.30
2022-11-22T09:36:22.499Z,3.30
2022-11-22T09:38:51.095Z,3.33
2022-11-22T09:41:37.512Z,3.36
2022-11-22T09:44:17.800Z,3.28
2022-11-22T09:46:55.124Z,3.25
2022-11-22T09:49:41.942Z,3.22
2022-11-22T09:52:15.290Z,3.17
2022-11-22T09:54:53.954Z,3.11
2022-11-22T09:57:32.536Z,3.08
2022-11-22T10:00:33.080Z,3.00
2022-11-22T10:03:30.414Z,3.04
2022-11-22T10:06:07.101Z,3.02
2022-11-22T10:08:52.152Z,3.08
2022-11-22T10:11:43.196Z,3.09
2022-11-22T10:14:36.228Z,3.15
2022-11-22T10:17:25.361Z,3.19
2022-11-22T10:20:13.513Z,3.20
2022-11-22T10:22:41.238Z,3.22
2022-11-22T10:25:27.567Z,3.23
2022-11-22T10:28:09.945Z,3.23
2022-11-22T10:30:42.614Z,3.21
2022-11-22T10:33:22.765Z,3.16
2022-11-22T10:36:07.099Z,3.16
2022-11-22T10:38:52.840Z,3.12
2022-11-22T10:41:32.334Z,3.12
2022-11-22T10:44:17.724Z,3.19
2022-11-22T10:47:10.943Z,3.25
2022-11-22T10:49:50.045Z,3.30
2022-11-22T10:52:55.241Z,3.36
2022-11-22T10:55:53.898Z,3.41
2022-11-22T10:58:29.281Z,3.40
2022-11-22T11:01:07.049Z,3.36
2022-11-22T11:03:39.704Z,3.35
2022-11-22T11:06:43.178Z,3.38
2022-11-22T11:12:19.687Z,3.45
2022-11-22T11:14:52.071Z,3.50
2022-11-22T11:17:32.452Z,3.53
2022-11-22T11:20:04.918Z,3.46
2022-11-22T11:23:12.362Z,3.48
2022-11-22T11:25:43.659Z,3.53
2022-11-22T11:28:20.326Z,3.50
2022-11-22T11:31:06.939Z,3.52
2022-11-22T11:33:38.352Z,3.55
2022-11-22T11:36:14.075Z,3.59
2022-11-22T11:38:44.569Z,3.53
2022-11-22T11:41:30.129Z,3.49
2022-11-22T11:44:03.782Z,3.45
2022-11-22T11:46:40.838Z,3.39
2022-11-22T11:49:11.495Z,3.35
2022-11-22T11:51:42.502Z,3.36
2022-11-22T11:54:19.980Z,3.27
2022-11-22T11:56:52.466Z,3.26
2022-11-22T11:59:43.057Z,3.20
2022-11-22T12:02:13.754Z,3.21
2022-11-22T12:04:58.831Z,3.20
2022-11-22T12:07:35.932Z,3.13
2022-11-22T12:10:42.432Z,3.12
2022-11-22T12:13:10.143Z,3.08
2022-11-22T12:15:53.739Z,3.06
2022-11-22T12:18:41.840Z,3.06
2022-11-22T12:21:35.269Z,3.06
2022-11-22T12:24:45.617Z,3.05
2022-11-22T12:27:14.224Z,3.02
2022-11-22T12:29:44.578Z,3.05
2022-11-22T12:32:39.698Z,3.04
2022-11-22T12:35:14.530Z,3.00
2022-11-22T12:37:50.066Z,3.01
2022-11-22T12:40:31.674Z,3.00
2022-11-22T12:43:03.662Z,3.04
2022-11-22T12:46:12.223Z,3.07
2022-11-22T12:48:55.006Z,3.00
2022-11-22T12:51:28.788Z,2.97
2022-11-22T12:54:02.012Z,2.93
2022-11-22T12:56:44.195Z,2.92
2022-11-22T12:59:11.901Z,2.87
2022-11-22T13:01:47.756Z,2.91
2022-11-22T13:04:22.756Z,2.88
2022-11-22T13:07:15.666Z,2.80
2022-11-22T13:09:55.632Z,2.79
2022-11-22T13:12:31.007Z,2.74
2022-11-22T13:14:59.593Z,2.76
2022-11-22T13:17:34.176Z,2.73
2022-11-22T13:20:06.228Z,2.73
2022-11-22T13:22:52.071Z,2.73
2022-11-22T13:25:42.936Z,2.68
2022-11-22T13:28:25.736Z,2.60
2022-11-22T13:31:12.000Z,2.53
2022-11-22T13:33:53.646Z,2.50
2022-11-22T13:36:27.445Z,2.50
2022-11-22T13:39:03.319Z,2.51
2022-11-22T13:41:58.733Z,2.48
2022-11-22T13:44:33.142Z,2.42
2022-11-22T13:47:25.117Z,2.39
2022-11-22T13:49:54.123Z,2.37
2022-11-22T13:52:22.276Z,2.37
2022-11-22T13:54:49.973Z,2.34
2022-11-22T13:57:42.558Z,2.29
2022-11-22T14:00:13.936Z,2.27
2022-11-22T14:02:43.525Z,2.23
2022-11-22T14:05:19.772Z,2.20
2022-11-22T14:07:56.324Z,2.22
2022-11-22T14:10:27.159Z,2.22
2022-11-22T14:13:13.677Z,2.21
2022-11-22T14:15:55.048Z,2.23
2022-11-22T14:18:50.891Z,2.24
2022-11-22T14:21:40.284Z,2.20
2022-11-22T14:24:14.157Z,2.18
2022-11-22T14:26:41.885Z,2.22
2022-11-22T14:29:37.396Z,2.22
2022-11-22T14:32:16.175Z,2.18
2022-11-22T14:35:05.837Z,2.18
2022-11-22T14:37:43.892Z,2.17
2022-11-22T14:40:26.785Z,2.19
2022-11-22T14:42:57.528Z,2.13
2022-11-22T14:45:35.982Z,2.08
2022-11-22T14:48:20.358Z,2.09
2022-11-22T14:50:56.195Z,2.08
2022-11-22T14:53:33.515Z,2.13
2022-11-22T14:56:20.143Z,2.11
2022-11-22T14:59:25.967Z,2.10
2022-11-22T15:02:07.513Z,2.13
2022-11-22T15:09:18.219Z,2.20
2022-11-22T15:09:21.188Z,2.24
2022-11-22T15:11:16.040Z,2.16
2022-11-22T15:14:02.578Z,2.19
2022-11-22T15:59:43.364Z,1.91
2022-11-22T16:02:22.602Z,1.89
2022-11-22T16:06:05.694Z,1.82
2022-11-22T16:08:00.922Z,1.83
2022-11-22T16:10:33.200Z,1.80
2022-11-22T16:13:32.103Z,1.79
2022-11-22T16:16:03.962Z,1.78
2022-11-22T16:18:31.989Z,1.77
2022-11-22T16:21:04.256Z,1.77
2022-11-22T16:23:34.956Z,1.79
2022-11-22T16:26:18.992Z,1.85
2022-11-22T16:28:48.371Z,1.87
2022-11-22T16:31:29.929Z,1.87
2022-11-22T16:33:58.236Z,1.86
2022-11-22T16:36:29.759Z,1.82
2022-11-22T16:38:57.771Z,1.80
2022-11-22T16:41:27.997Z,1.78
2022-11-22T16:44:10.377Z,1.75
2022-11-22T16:46:39.978Z,1.75
2022-11-22T16:49:19.170Z,1.76
2022-11-22T16:51:48.555Z,1.78
2022-11-22T16:54:19.491Z,1.72
2022-11-22T16:56:47.658Z,1.73
2022-11-22T16:59:15.852Z,1.71
2022-11-22T17:01:44.234Z,1.69
2022-11-22T17:04:23.794Z,1.71
2022-11-22T17:06:51.948Z,1.72
2022-11-22T17:09:19.868Z,1.67
2022-11-22T17:11:47.830Z,1.72
2022-11-22T17:14:17.037Z,1.69
2022-11-22T17:16:46.431Z,1.72
2022-11-22T17:19:37.348Z,1.67
2022-11-22T17:22:02.324Z,1.62
2022-11-22T17:24:30.365Z,1.56
2022-11-22T17:26:58.723Z,1.55
2022-11-22T17:32:15.203Z,1.49
2022-11-22T17:34:42.912Z,1.46
2022-11-22T17:37:12.192Z,1.43
2022-11-22T17:39:40.633Z,1.44
2022-11-22T17:42:08.774Z,1.40
2022-11-22T17:44:36.485Z,1.41
2022-11-22T17:47:04.326Z,1.39
2022-11-22T17:49:32.325Z,1.38
2022-11-22T17:52:00.645Z,1.37
2022-11-22T17:54:28.371Z,1.34
2022-11-22T17:56:56.293Z,1.32
2022-11-22T17:59:23.985Z,1.36
2022-11-22T18:01:51.754Z,1.38
2022-11-22T18:04:19.409Z,1.37
2022-11-22T18:06:47.183Z,1.36
2022-11-22T18:09:14.964Z,1.33
2022-11-22T18:11:43.542Z,1.30
2022-11-22T18:14:11.470Z,1.28
2022-11-22T18:16:39.344Z,1.31
2022-11-22T18:19:12.825Z,1.33
2022-11-22T18:21:40.505Z,1.32
2022-11-22T18:24:08.536Z,1.34
2022-11-22T18:26:40.634Z,1.42
2022-11-22T18:31:58.219Z,1.38
2022-11-22T18:34:27.611Z,1.37
2022-11-22T18:37:00.904Z,1.36
2022-11-22T18:39:36.740Z,1.35
2022-11-22T18:42:06.979Z,1.31
2022-11-22T18:44:34.728Z,1.26
2022-11-22T18:47:03.072Z,1.28
2022-11-22T18:49:31.249Z,1.30
2022-11-22T18:51:59.502Z,1.32
2022-11-22T18:54:27.189Z,1.36
2022-11-22T18:56:57.333Z,1.39
2022-11-22T18:59:25.134Z,1.38
2022-11-22T19:01:52.900Z,1.38
2022-11-22T19:04:20.634Z,1.37
2022-11-22T19:06:48.285Z,1.41
2022-11-22T19:09:16.056Z,1.43
2022-11-22T19:11:43.795Z,1.44
2022-11-22T19:14:11.551Z,1.46
2022-11-22T19:16:39.426Z,1.51
2022-11-22T19:19:10.547Z,1.51
2022-11-22T19:21:38.217Z,1.42
2022-11-22T19:24:06.262Z,1.44
2022-11-22T19:26:34.196Z,1.39
2022-11-22T19:29:02.719Z,1.35
2022-11-22T19:31:31.685Z,1.31
2022-11-22T19:34:00.201Z,1.29
2022-11-22T19:36:36.089Z,1.31
2022-11-22T19:39:05.351Z,1.33
2022-11-22T19:41:33.812Z,1.33
2022-11-22T19:44:02.363Z,1.32
2022-11-22T19:46:30.431Z,1.30
2022-11-22T19:49:01.388Z,1.27
2022-11-22T19:51:31.105Z,1.34
2022-11-22T19:54:21.783Z,1.35
2022-11-22T19:56:50.477Z,1.34
2022-11-22T19:59:18.386Z,1.38
2022-11-22T20:01:46.402Z,1.36
2022-11-22T20:04:15.704Z,1.38
2022-11-22T20:06:48.584Z,1.37
2022-11-22T20:09:17.896Z,1.42
2022-11-22T20:11:47.024Z,1.44
2022-11-22T20:14:15.871Z,1.46
2022-11-22T20:16:44.066Z,1.46
2022-11-22T20:19:14.870Z,1.48
2022-11-22T20:21:42.888Z,1.50
2022-11-22T20:24:11.623Z,1.50
2022-11-22T20:26:39.349Z,1.51
2022-11-22T20:29:11.930Z,1.54
2022-11-22T20:31:40.934Z,1.49
2022-11-22T20:34:10.073Z,1.48
2022-11-22T20:36:37.905Z,1.50
2022-11-22T20:39:10.885Z,1.47
2022-11-22T20:41:40.078Z,1.50
2022-11-22T20:44:12.506Z,1.52
2022-11-22T20:46:41.206Z,1.50
2022-11-22T20:49:09.396Z,1.55
2022-11-22T20:51:39.802Z,1.54
2022-11-22T20:54:08.592Z,1.50
2022-11-22T20:56:37.544Z,1.45
2022-11-22T20:59:05.559Z,1.47
2022-11-22T21:01:33.857Z,1.53
2022-11-22T21:04:01.770Z,1.59
2022-11-22T21:06:29.479Z,1.59
2022-11-22T21:08:57.452Z,1.62
2022-11-22T21:11:36.693Z,1.60
2022-11-22T21:14:04.558Z,1.57
2022-11-22T21:16:32.508Z,1.56
2022-11-22T21:19:02.046Z,1.61
2022-11-22T21:21:31.014Z,1.62
2022-11-22T21:24:00.971Z,1.60
2022-11-22T21:26:29.858Z,1.58
2022-11-22T21:28:59.454Z,1.60
2022-11-22T21:31:28.048Z,1.59
2022-11-22T21:33:55.947Z,1.58
2022-11-22T21:36:23.734Z,1.59
2022-11-22T21:38:51.696Z,1.64
2022-11-22T21:41:39.215Z,1.61
2022-11-22T21:44:08.960Z,1.61
2022-11-22T21:46:37.164Z,1.57
2022-11-22T21:49:05.285Z,1.56
2022-11-22T21:51:32.940Z,1.60
2022-11-22T21:54:01.959Z,1.57
2022-11-22T21:56:29.844Z,1.55
2022-11-22T21:58:57.760Z,1.54
2022-11-22T22:01:25.994Z,1.54
2022-11-22T22:03:54.204Z,1.45
2022-11-22T22:06:22.317Z,1.46
2022-11-22T22:08:49.981Z,1.49
2022-11-22T22:11:17.952Z,1.55
2022-11-22T22:13:45.836Z,1.57
2022-11-22T22:16:19.228Z,1.62
2022-11-22T22:18:47.459Z,1.61
2022-11-22T22:21:16.560Z,1.56
2022-11-22T22:23:45.320Z,1.53
2022-11-22T22:26:15.578Z,1.53
2022-11-22T22:28:45.079Z,1.45
2022-11-22T22:31:21.785Z,1.43
2022-11-22T22:33:55.528Z,1.40
2022-11-22T22:36:25.637Z,1.41
2022-11-22T22:38:54.333Z,1.43
2022-11-22T22:41:22.233Z,1.45
2022-11-22T22:43:50.175Z,1.46
2022-11-22T22:46:20.426Z,1.43
2022-11-22T22:48:49.364Z,1.40
2022-11-22T22:51:19.777Z,1.36
2022-11-22T22:53:48.263Z,1.32
2022-11-22T22:56:18.365Z,1.30
2022-11-22T22:58:46.369Z,1.27
2022-11-22T23:01:17.509Z,1.26
2022-11-22T23:03:54.142Z,1.30
2022-11-22T23:06:22.417Z,1.26
2022-11-22T23:08:51.941Z,1.27
2022-11-22T23:11:41.235Z,1.24
2022-11-22T23:14:09.165Z,1.18
2022-11-22T23:16:38.833Z,1.17
2022-11-22T23:19:08.044Z,1.17
2022-11-22T23:21:36.319Z,1.18
2022-11-22T23:24:05.104Z,1.19
2022-11-22T23:26:32.867Z,1.22
2022-11-22T23:29:01.028Z,1.19
2022-11-22T23:31:28.709Z,1.20
2022-11-22T23:33:56.546Z,1.24
2022-11-22T23:36:24.249Z,1.22
2022-11-22T23:38:52.021Z,1.16
2022-11-22T23:41:22.622Z,1.18
2022-11-22T23:43:55.138Z,1.22
2022-11-22T23:46:26.407Z,1.21
2022-11-22T23:48:57.198Z,1.25
2022-11-22T23:51:26.475Z,1.21
2022-11-22T23:53:55.762Z,1.20
2022-11-22T23:56:23.772Z,1.21
2022-11-22T23:58:52.793Z,1.18
